createdAt,value
2018-11-14T00:00:39.950Z,1022.15
2018-11-14T00:01:20.630Z,1022.15
2018-11-14T00:02:01.204Z,1022.17
2018-11-14T00:02:41.797Z,1022.13
2018-11-14T00:03:22.346Z,1022.17
2018-11-14T00:04:02.894Z,1022.18
2018-11-14T00:04:43.465Z,1022.16
2018-11-14T00:05:24.054Z,1022.2
2018-11-14T00:06:04.639Z,1022.22
2018-11-14T00:06:45.196Z,1022.17
2018-11-14T00:07:25.766Z,1022.22
2018-11-14T00:08:06.331Z,1022.24
2018-11-14T00:08:46.918Z,1022.19
2018-11-14T00:09:27.488Z,1022.23
2018-11-14T00:10:08.097Z,1022.26
2018-11-14T00:10:48.601Z,1022.26
2018-11-14T00:11:29.154Z,1022.3
2018-11-14T00:12:09.726Z,1022.29
2018-11-14T00:12:50.287Z,1022.26
2018-11-14T00:13:30.840Z,1022.27
2018-11-14T00:14:11.411Z,1022.29
2018-11-14T00:14:51.987Z,1022.28
2018-11-14T00:15:32.538Z,1022.28
2018-11-14T00:16:13.110Z,1022.27
2018-11-14T00:16:53.653Z,1022.3
2018-11-14T00:17:34.200Z,1022.26
2018-11-14T00:18:14.759Z,1022.29
2018-11-14T00:18:55.324Z,1022.27
2018-11-14T00:19:35.884Z,1022.26
2018-11-14T00:20:16.440Z,1022.26
2018-11-14T00:20:57.018Z,1022.21
2018-11-14T00:21:37.578Z,1022.28
2018-11-14T00:22:18.131Z,1022.25
2018-11-14T00:22:58.679Z,1022.3
2018-11-14T00:23:39.262Z,1022.23
2018-11-14T00:24:19.857Z,1022.23
2018-11-14T00:25:00.394Z,1022.22
2018-11-14T00:25:40.954Z,1022.23
2018-11-14T00:26:21.519Z,1022.17
2018-11-14T00:27:02.443Z,1022.18
2018-11-14T00:27:43.017Z,1022.16
2018-11-14T00:28:23.533Z,1022.23
2018-11-14T00:29:04.159Z,1022.19
2018-11-14T00:29:44.732Z,1022.22
2018-11-14T00:30:25.286Z,1022.23
2018-11-14T00:31:05.856Z,1022.28
2018-11-14T00:31:46.418Z,1022.28
2018-11-14T00:32:26.978Z,1022.3
2018-11-14T00:33:07.578Z,1022.27
2018-11-14T00:33:48.102Z,1022.27
2018-11-14T00:34:28.726Z,1022.33
2018-11-14T00:35:09.216Z,1022.25
2018-11-14T00:35:49.761Z,1022.34
2018-11-14T00:36:30.319Z,1022.3
2018-11-14T00:37:10.874Z,1022.33
2018-11-14T00:37:51.417Z,1022.3
2018-11-14T00:38:32.017Z,1022.33
2018-11-14T00:39:12.528Z,1022.3
2018-11-14T00:39:53.102Z,1022.32
2018-11-14T00:40:33.663Z,1022.31
2018-11-14T00:41:14.221Z,1022.32
2018-11-14T00:41:54.777Z,1022.3
2018-11-14T00:42:35.331Z,1022.28
2018-11-14T00:43:15.879Z,1022.26
2018-11-14T00:43:56.437Z,1022.3
2018-11-14T00:44:36.978Z,1022.34
2018-11-14T00:45:17.551Z,1022.31
2018-11-14T00:45:58.106Z,1022.33
2018-11-14T00:46:38.668Z,1022.35
2018-11-14T00:47:19.236Z,1022.39
2018-11-14T00:47:59.790Z,1022.36
2018-11-14T00:48:40.332Z,1022.36
2018-11-14T00:49:20.904Z,1022.38
2018-11-14T00:50:01.467Z,1022.41
2018-11-14T00:50:42.029Z,1022.4
2018-11-14T00:51:22.590Z,1022.42
2018-11-14T00:52:03.159Z,1022.41
2018-11-14T00:52:43.709Z,1022.42
2018-11-14T00:53:24.303Z,1022.42
2018-11-14T00:54:04.856Z,1022.44
2018-11-14T00:54:45.432Z,1022.41
2018-11-14T00:55:25.988Z,1022.43
2018-11-14T00:56:06.576Z,1022.47
2018-11-14T00:56:47.112Z,1022.43
2018-11-14T00:57:27.682Z,1022.44
2018-11-14T00:58:08.231Z,1022.44
2018-11-14T00:58:48.835Z,1022.49
2018-11-14T00:59:29.390Z,1022.44
2018-11-14T01:00:09.950Z,1022.46
2018-11-14T01:00:50.514Z,1022.38
2018-11-14T01:01:31.223Z,1022.42
2018-11-14T01:02:12.033Z,1022.4
2018-11-14T01:02:52.669Z,1022.43
2018-11-14T01:03:33.287Z,1022.41
2018-11-14T01:04:13.848Z,1022.44
2018-11-14T01:04:54.440Z,1022.36
2018-11-14T01:05:35.016Z,1022.44
2018-11-14T01:06:15.589Z,1022.49
2018-11-14T01:06:56.138Z,1022.45
2018-11-14T01:07:36.697Z,1022.44
2018-11-14T01:08:17.282Z,1022.5
2018-11-14T01:08:57.840Z,1022.48
2018-11-14T01:09:38.409Z,1022.48
2018-11-14T01:10:18.960Z,1022.45
2018-11-14T01:10:59.521Z,1022.46
2018-11-14T01:11:40.064Z,1022.47
2018-11-14T01:12:20.628Z,1022.46
2018-11-14T01:13:01.203Z,1022.49
2018-11-14T01:13:41.831Z,1022.48
2018-11-14T01:14:22.378Z,1022.51
2018-11-14T01:15:02.979Z,1022.5
2018-11-14T01:15:43.539Z,1022.49
2018-11-14T01:16:24.097Z,1022.51
2018-11-14T01:17:04.673Z,1022.53
2018-11-14T01:17:45.221Z,1022.55
2018-11-14T01:18:25.773Z,1022.53
2018-11-14T01:19:06.338Z,1022.56
2018-11-14T01:19:46.913Z,1022.57
2018-11-14T01:20:27.477Z,1022.55
2018-11-14T01:21:08.025Z,1022.56
2018-11-14T01:21:48.577Z,1022.59
2018-11-14T01:22:29.145Z,1022.57
2018-11-14T01:23:09.695Z,1022.55
2018-11-14T01:23:50.272Z,1022.55
2018-11-14T01:24:30.822Z,1022.51
2018-11-14T01:25:11.387Z,1022.5
2018-11-14T01:25:51.940Z,1022.51
2018-11-14T01:26:32.511Z,1022.54
2018-11-14T01:27:13.371Z,1022.54
2018-11-14T01:27:53.631Z,1022.52
2018-11-14T01:28:34.182Z,1022.54
2018-11-14T01:29:14.780Z,1022.55
2018-11-14T01:29:55.379Z,1022.55
2018-11-14T01:30:35.942Z,1022.58
2018-11-14T01:31:16.504Z,1022.56
2018-11-14T01:31:57.067Z,1022.56
2018-11-14T01:32:37.641Z,1022.58
2018-11-14T01:33:18.196Z,1022.6
2018-11-14T01:33:58.804Z,1022.59
2018-11-14T01:34:39.310Z,1022.58
2018-11-14T01:35:19.932Z,1022.57
2018-11-14T01:36:00.529Z,1022.61
2018-11-14T01:36:41.087Z,1022.57
2018-11-14T01:37:21.656Z,1022.6
2018-11-14T01:38:02.235Z,1022.6
2018-11-14T01:38:42.798Z,1022.58
2018-11-14T01:39:23.352Z,1022.61
2018-11-14T01:40:03.903Z,1022.63
2018-11-14T01:40:44.459Z,1022.62
2018-11-14T01:41:25.010Z,1022.59
2018-11-14T01:42:05.571Z,1022.68
2018-11-14T01:42:46.116Z,1022.63
2018-11-14T01:43:26.689Z,1022.65
2018-11-14T01:44:07.248Z,1022.62
2018-11-14T01:44:47.841Z,1022.65
2018-11-14T01:45:28.358Z,1022.63
2018-11-14T01:46:08.923Z,1022.65
2018-11-14T01:46:49.487Z,1022.66
2018-11-14T01:47:30.044Z,1022.68
2018-11-14T01:48:10.645Z,1022.65
2018-11-14T01:48:51.206Z,1022.66
2018-11-14T01:49:31.757Z,1022.63
2018-11-14T01:50:12.318Z,1022.66
2018-11-14T01:50:52.888Z,1022.67
2018-11-14T01:51:33.451Z,1022.67
2018-11-14T01:52:14.005Z,1022.66
2018-11-14T01:52:54.584Z,1022.66
2018-11-14T01:53:35.177Z,1022.67
2018-11-14T01:54:15.715Z,1022.62
2018-11-14T01:54:56.239Z,1022.6
2018-11-14T01:55:36.804Z,1022.59
2018-11-14T01:56:17.349Z,1022.56
2018-11-14T01:56:57.895Z,1022.58
2018-11-14T01:57:38.457Z,1022.57
2018-11-14T01:58:19.064Z,1022.62
2018-11-14T01:58:59.645Z,1022.6
2018-11-14T01:59:40.215Z,1022.62
2018-11-14T02:00:20.762Z,1022.62
2018-11-14T02:01:01.315Z,1022.65
2018-11-14T02:01:41.861Z,1022.63
2018-11-14T02:02:22.422Z,1022.64
2018-11-14T02:03:02.981Z,1022.63
2018-11-14T02:03:43.540Z,1022.66
2018-11-14T02:04:24.121Z,1022.64
2018-11-14T02:05:04.686Z,1022.62
2018-11-14T02:05:45.244Z,1022.64
2018-11-14T02:06:25.795Z,1022.69
2018-11-14T02:07:06.355Z,1022.66
2018-11-14T02:07:46.931Z,1022.67
2018-11-14T02:08:27.504Z,1022.63
2018-11-14T02:09:08.053Z,1022.63
2018-11-14T02:09:48.615Z,1022.64
2018-11-14T02:10:29.176Z,1022.62
2018-11-14T02:11:09.734Z,1022.63
2018-11-14T02:11:50.302Z,1022.64
2018-11-14T02:12:30.869Z,1022.65
2018-11-14T02:13:11.403Z,1022.69
2018-11-14T02:13:51.989Z,1022.65
2018-11-14T02:14:32.569Z,1022.66
2018-11-14T02:15:13.121Z,1022.7
2018-11-14T02:15:53.667Z,1022.7
2018-11-14T02:16:34.233Z,1022.68
2018-11-14T02:17:14.800Z,1022.7
2018-11-14T02:17:55.362Z,1022.66
2018-11-14T02:18:35.914Z,1022.65
2018-11-14T02:19:16.456Z,1022.66
2018-11-14T02:19:57.013Z,1022.7
2018-11-14T02:20:37.569Z,1022.71
2018-11-14T02:21:18.127Z,1022.69
2018-11-14T02:21:58.687Z,1022.67
2018-11-14T02:22:39.248Z,1022.66
2018-11-14T02:23:19.799Z,1022.66
2018-11-14T02:24:00.339Z,1022.75
2018-11-14T02:24:40.887Z,1022.69
2018-11-14T02:25:21.445Z,1022.76
2018-11-14T02:26:02.006Z,1022.74
2018-11-14T02:26:42.565Z,1022.73
2018-11-14T02:27:23.115Z,1022.77
2018-11-14T02:28:03.676Z,1022.78
2018-11-14T02:28:44.254Z,1022.75
2018-11-14T02:29:24.807Z,1022.77
2018-11-14T02:30:05.369Z,1022.8
2018-11-14T02:30:45.922Z,1022.77
2018-11-14T02:31:26.467Z,1022.76
2018-11-14T02:32:07.023Z,1022.76
2018-11-14T02:32:47.601Z,1022.77
2018-11-14T02:33:28.150Z,1022.79
2018-11-14T02:34:08.710Z,1022.75
2018-11-14T02:34:49.317Z,1022.77
2018-11-14T02:35:29.870Z,1022.81
2018-11-14T02:36:10.466Z,1022.79
2018-11-14T02:36:51.024Z,1022.81
2018-11-14T02:37:31.654Z,1022.77
2018-11-14T02:38:12.155Z,1022.73
2018-11-14T02:38:52.726Z,1022.76
2018-11-14T02:39:33.283Z,1022.75
2018-11-14T02:40:13.864Z,1022.71
2018-11-14T02:40:54.446Z,1022.74
2018-11-14T02:41:35.105Z,1022.76
2018-11-14T02:42:15.661Z,1022.74
2018-11-14T02:42:56.273Z,1022.75
2018-11-14T02:43:36.821Z,1022.7
2018-11-14T02:44:17.372Z,1022.72
2018-11-14T02:44:57.927Z,1022.75
2018-11-14T02:45:38.487Z,1022.72
2018-11-14T02:46:19.114Z,1022.71
2018-11-14T02:46:59.643Z,1022.71
2018-11-14T02:47:40.204Z,1022.67
2018-11-14T02:48:20.762Z,1022.68
2018-11-14T02:49:01.313Z,1022.67
2018-11-14T02:49:41.868Z,1022.67
2018-11-14T02:50:22.430Z,1022.74
2018-11-14T02:51:02.988Z,1022.7
2018-11-14T02:51:43.550Z,1022.71
2018-11-14T02:52:24.087Z,1022.68
2018-11-14T02:53:04.668Z,1022.73
2018-11-14T02:53:45.235Z,1022.66
2018-11-14T02:54:25.819Z,1022.69
2018-11-14T02:55:06.407Z,1022.71
2018-11-14T02:55:46.998Z,1022.73
2018-11-14T02:56:27.557Z,1022.75
2018-11-14T02:57:08.146Z,1022.74
2018-11-14T02:57:48.714Z,1022.78
2018-11-14T02:58:29.263Z,1022.77
2018-11-14T02:59:09.854Z,1022.82
2018-11-14T02:59:50.438Z,1022.81
2018-11-14T03:00:31.006Z,1022.82
2018-11-14T03:01:11.549Z,1022.79
2018-11-14T03:01:52.109Z,1022.79
2018-11-14T03:02:32.658Z,1022.82
2018-11-14T03:03:13.224Z,1022.8
2018-11-14T03:03:53.797Z,1022.8
2018-11-14T03:04:34.365Z,1022.79
2018-11-14T03:05:14.923Z,1022.82
2018-11-14T03:05:55.479Z,1022.8
2018-11-14T03:06:36.051Z,1022.83
2018-11-14T03:07:16.655Z,1022.81
2018-11-14T03:07:57.215Z,1022.8
2018-11-14T03:08:37.774Z,1022.8
2018-11-14T03:09:18.326Z,1022.85
2018-11-14T03:09:58.878Z,1022.85
2018-11-14T03:10:39.451Z,1022.84
2018-11-14T03:11:20.029Z,1022.83
2018-11-14T03:12:00.584Z,1022.84
2018-11-14T03:12:41.162Z,1022.88
2018-11-14T03:13:21.883Z,1022.84
2018-11-14T03:14:02.341Z,1022.87
2018-11-14T03:14:42.886Z,1022.84
2018-11-14T03:15:23.454Z,1022.9
2018-11-14T03:16:04.014Z,1022.9
2018-11-14T03:16:44.597Z,1022.9
2018-11-14T03:17:25.153Z,1022.93
2018-11-14T03:18:05.740Z,1022.95
2018-11-14T03:18:46.311Z,1022.94
2018-11-14T03:19:26.868Z,1022.93
2018-11-14T03:20:07.443Z,1022.97
2018-11-14T03:20:48.003Z,1022.92
2018-11-14T03:21:28.571Z,1022.91
2018-11-14T03:22:09.122Z,1022.95
2018-11-14T03:22:49.707Z,1022.92
2018-11-14T03:23:30.263Z,1022.92
2018-11-14T03:24:10.810Z,1022.89
2018-11-14T03:24:51.358Z,1022.94
2018-11-14T03:25:31.910Z,1022.93
2018-11-14T03:26:12.476Z,1022.94
2018-11-14T03:26:53.040Z,1022.93
2018-11-14T03:27:33.603Z,1022.88
2018-11-14T03:28:14.171Z,1022.9
2018-11-14T03:28:54.709Z,1022.89
2018-11-14T03:29:35.266Z,1022.93
2018-11-14T03:30:15.819Z,1022.93
2018-11-14T03:30:56.368Z,1022.89
2018-11-14T03:31:36.972Z,1022.91
2018-11-14T03:32:17.551Z,1022.9
2018-11-14T03:32:58.180Z,1022.94
2018-11-14T03:33:38.733Z,1022.95
2018-11-14T03:34:19.323Z,1022.9
2018-11-14T03:34:59.915Z,1022.95
2018-11-14T03:35:40.465Z,1022.94
2018-11-14T03:36:21.015Z,1022.97
2018-11-14T03:37:01.588Z,1022.96
2018-11-14T03:37:42.139Z,1022.98
2018-11-14T03:38:22.689Z,1022.99
2018-11-14T03:39:03.244Z,1022.98
2018-11-14T03:39:43.827Z,1023.04
2018-11-14T03:40:24.375Z,1023.06
2018-11-14T03:41:04.948Z,1023.03
2018-11-14T03:41:45.525Z,1023.03
2018-11-14T03:42:26.080Z,1023.06
2018-11-14T03:43:06.639Z,1023.08
2018-11-14T03:43:47.202Z,1023.11
2018-11-14T03:44:27.758Z,1023.09
2018-11-14T03:45:08.310Z,1023.04
2018-11-14T03:45:48.867Z,1023.08
2018-11-14T03:46:29.411Z,1023.09
2018-11-14T03:47:09.969Z,1023.05
2018-11-14T03:47:50.553Z,1023.11
2018-11-14T03:48:31.105Z,1023.07
2018-11-14T03:49:11.656Z,1023.05
2018-11-14T03:49:52.231Z,1023.08
2018-11-14T03:50:32.790Z,1023.07
2018-11-14T03:51:13.374Z,1023.06
2018-11-14T03:51:53.926Z,1023.08
2018-11-14T03:52:34.480Z,1023.09
2018-11-14T03:53:15.015Z,1023
2018-11-14T03:53:55.564Z,1023.01
2018-11-14T03:54:36.114Z,1023.06
2018-11-14T03:55:16.665Z,1023.06
2018-11-14T03:55:57.216Z,1023.08
2018-11-14T03:56:37.779Z,1023.07
2018-11-14T03:57:18.345Z,1023.12
2018-11-14T03:57:58.893Z,1023.07
2018-11-14T03:58:39.460Z,1023.12
2018-11-14T03:59:20.025Z,1023.17
2018-11-14T04:00:00.584Z,1023.12
2018-11-14T04:00:41.135Z,1023.14
2018-11-14T04:01:21.687Z,1023.08
2018-11-14T04:02:02.246Z,1023.15
2018-11-14T04:02:42.814Z,1023.13
2018-11-14T04:03:23.383Z,1023.08
2018-11-14T04:04:03.943Z,1023.11
2018-11-14T04:04:44.496Z,1023.01
2018-11-14T04:05:25.094Z,1023.08
2018-11-14T04:06:05.648Z,1023.05
2018-11-14T04:06:46.218Z,1022.98
2018-11-14T04:07:26.801Z,1022.99
2018-11-14T04:08:07.363Z,1022.94
2018-11-14T04:08:47.910Z,1022.94
2018-11-14T04:09:28.577Z,1022.93
2018-11-14T04:10:09.053Z,1022.9
2018-11-14T04:10:49.621Z,1022.93
2018-11-14T04:11:30.211Z,1022.87
2018-11-14T04:12:10.762Z,1022.88
2018-11-14T04:12:51.317Z,1022.87
2018-11-14T04:13:31.886Z,1022.86
2018-11-14T04:14:12.453Z,1022.86
2018-11-14T04:14:53.033Z,1022.87
2018-11-14T04:15:33.624Z,1022.88
2018-11-14T04:16:14.165Z,1022.86
2018-11-14T04:16:54.724Z,1022.91
2018-11-14T04:17:35.279Z,1022.94
2018-11-14T04:18:15.834Z,1022.88
2018-11-14T04:18:56.406Z,1022.88
2018-11-14T04:19:36.967Z,1022.9
2018-11-14T04:20:17.536Z,1022.88
2018-11-14T04:20:58.111Z,1022.86
2018-11-14T04:21:38.716Z,1022.87
2018-11-14T04:22:19.286Z,1022.82
2018-11-14T04:22:59.838Z,1022.86
2018-11-14T04:23:40.383Z,1022.87
2018-11-14T04:24:20.981Z,1022.84
2018-11-14T04:25:01.564Z,1022.87
2018-11-14T04:25:42.161Z,1022.85
2018-11-14T04:26:22.737Z,1022.86
2018-11-14T04:27:03.302Z,1022.86
2018-11-14T04:27:43.858Z,1022.89
2018-11-14T04:28:24.426Z,1022.87
2018-11-14T04:29:05.000Z,1022.86
2018-11-14T04:29:45.537Z,1022.82
2018-11-14T04:30:26.096Z,1022.86
2018-11-14T04:31:06.654Z,1022.83
2018-11-14T04:31:47.212Z,1022.84
2018-11-14T04:32:27.767Z,1022.87
2018-11-14T04:33:08.333Z,1022.83
2018-11-14T04:33:48.881Z,1022.89
2018-11-14T04:34:29.445Z,1022.86
2018-11-14T04:35:10.014Z,1022.89
2018-11-14T04:35:50.581Z,1022.9
2018-11-14T04:36:31.217Z,1022.92
2018-11-14T04:37:11.774Z,1022.86
2018-11-14T04:37:52.340Z,1022.92
2018-11-14T04:38:32.904Z,1022.92
2018-11-14T04:39:13.458Z,1022.85
2018-11-14T04:39:54.025Z,1022.9
2018-11-14T04:40:34.583Z,1022.89
2018-11-14T04:41:15.160Z,1022.88
2018-11-14T04:41:55.725Z,1022.92
2018-11-14T04:42:36.299Z,1022.9
2018-11-14T04:43:16.887Z,1022.9
2018-11-14T04:43:57.450Z,1022.94
2018-11-14T04:44:38.025Z,1022.9
2018-11-14T04:45:18.553Z,1022.89
2018-11-14T04:45:59.104Z,1022.91
2018-11-14T04:46:39.662Z,1022.94
2018-11-14T04:47:20.238Z,1022.91
2018-11-14T04:48:00.871Z,1022.89
2018-11-14T04:48:41.354Z,1022.88
2018-11-14T04:49:21.909Z,1022.85
2018-11-14T04:50:02.462Z,1022.91
2018-11-14T04:50:43.014Z,1022.87
2018-11-14T04:51:23.575Z,1022.88
2018-11-14T04:52:04.131Z,1022.89
2018-11-14T04:52:44.690Z,1022.87
2018-11-14T04:53:25.259Z,1022.85
2018-11-14T04:54:05.831Z,1022.88
2018-11-14T04:54:46.407Z,1022.87
2018-11-14T04:55:26.980Z,1022.87
2018-11-14T04:56:07.546Z,1022.85
2018-11-14T04:56:48.100Z,1022.86
2018-11-14T04:57:28.680Z,1022.84
2018-11-14T04:58:09.247Z,1022.85
2018-11-14T04:58:49.781Z,1022.84
2018-11-14T04:59:30.379Z,1022.82
2018-11-14T05:00:10.963Z,1022.83
2018-11-14T05:00:51.529Z,1022.81
2018-11-14T05:01:32.097Z,1022.84
2018-11-14T05:02:12.653Z,1022.85
2018-11-14T05:02:53.244Z,1022.86
2018-11-14T05:03:33.799Z,1022.89
2018-11-14T05:04:14.352Z,1022.91
2018-11-14T05:04:54.908Z,1022.92
2018-11-14T05:05:35.467Z,1022.92
2018-11-14T05:06:16.008Z,1022.94
2018-11-14T05:06:56.553Z,1022.93
2018-11-14T05:07:37.101Z,1022.97
2018-11-14T05:08:17.661Z,1022.96
2018-11-14T05:08:58.242Z,1022.98
2018-11-14T05:09:38.815Z,1022.96
2018-11-14T05:10:19.421Z,1023
2018-11-14T05:10:59.978Z,1023
2018-11-14T05:11:40.548Z,1023.02
2018-11-14T05:12:21.166Z,1023
2018-11-14T05:13:01.859Z,1022.99
2018-11-14T05:13:42.289Z,1023.05
2018-11-14T05:14:22.849Z,1023.03
2018-11-14T05:15:03.424Z,1023.02
2018-11-14T05:15:43.984Z,1023.03
2018-11-14T05:16:24.559Z,1023.01
2018-11-14T05:17:05.141Z,1023.02
2018-11-14T05:17:45.696Z,1023
2018-11-14T05:18:26.246Z,1023.01
2018-11-14T05:19:06.805Z,1023.04
2018-11-14T05:19:47.351Z,1023
2018-11-14T05:20:27.907Z,1022.99
2018-11-14T05:21:08.456Z,1023.01
2018-11-14T05:21:49.064Z,1023.01
2018-11-14T05:22:29.638Z,1023.01
2018-11-14T05:23:10.192Z,1023.04
2018-11-14T05:23:50.734Z,1023.08
2018-11-14T05:24:31.328Z,1023.05
2018-11-14T05:25:11.855Z,1023.08
2018-11-14T05:25:52.419Z,1023.11
2018-11-14T05:26:32.996Z,1023.12
2018-11-14T05:27:13.582Z,1023.12
2018-11-14T05:27:54.145Z,1023.1
2018-11-14T05:28:34.750Z,1023.12
2018-11-14T05:29:15.310Z,1023.1
2018-11-14T05:29:55.874Z,1023.14
2018-11-14T05:30:36.422Z,1023.14
2018-11-14T05:31:17.020Z,1023.12
2018-11-14T05:31:57.632Z,1023.15
2018-11-14T05:32:38.153Z,1023.17
2018-11-14T05:33:18.713Z,1023.12
2018-11-14T05:33:59.271Z,1023.17
2018-11-14T05:34:39.841Z,1023.16
2018-11-14T05:35:20.397Z,1023.18
2018-11-14T05:36:00.953Z,1023.16
2018-11-14T05:36:41.535Z,1023.17
2018-11-14T05:37:22.090Z,1023.2
2018-11-14T05:38:02.653Z,1023.22
2018-11-14T05:38:43.215Z,1023.22
2018-11-14T05:39:23.777Z,1023.24
2018-11-14T05:40:04.388Z,1023.19
2018-11-14T05:40:44.916Z,1023.22
2018-11-14T05:41:25.477Z,1023.21
2018-11-14T05:42:06.036Z,1023.2
2018-11-14T05:42:46.583Z,1023.21
2018-11-14T05:43:27.192Z,1023.17
2018-11-14T05:44:07.777Z,1023.2
2018-11-14T05:44:48.372Z,1023.21
2018-11-14T05:45:29.039Z,1023.21
2018-11-14T05:46:09.546Z,1023.2
2018-11-14T05:46:50.100Z,1023.21
2018-11-14T05:47:30.709Z,1023.23
2018-11-14T05:48:11.266Z,1023.23
2018-11-14T05:48:51.839Z,1023.25
2018-11-14T05:49:32.439Z,1023.26
2018-11-14T05:50:13.010Z,1023.25
2018-11-14T05:50:53.564Z,1023.23
2018-11-14T05:51:34.125Z,1023.28
2018-11-14T05:52:14.677Z,1023.22
2018-11-14T05:52:55.243Z,1023.2
2018-11-14T05:53:35.803Z,1023.22
2018-11-14T05:54:16.345Z,1023.19
2018-11-14T05:54:57.024Z,1023.24
2018-11-14T05:55:37.504Z,1023.23
2018-11-14T05:56:18.103Z,1023.22
2018-11-14T05:56:58.694Z,1023.24
2018-11-14T05:57:39.237Z,1023.24
2018-11-14T05:58:19.811Z,1023.23
2018-11-14T05:59:00.369Z,1023.26
2018-11-14T05:59:40.950Z,1023.25
2018-11-14T06:00:21.507Z,1023.29
2018-11-14T06:01:02.089Z,1023.26
2018-11-14T06:01:42.678Z,1023.33
2018-11-14T06:02:23.250Z,1023.33
2018-11-14T06:03:03.818Z,1023.35
2018-11-14T06:03:44.363Z,1023.35
2018-11-14T06:04:24.974Z,1023.33
2018-11-14T06:05:05.531Z,1023.35
2018-11-14T06:05:46.166Z,1023.32
2018-11-14T06:06:26.755Z,1023.32
2018-11-14T06:07:07.416Z,1023.31
2018-11-14T06:07:47.925Z,1023.32
2018-11-14T06:08:28.493Z,1023.33
2018-11-14T06:09:09.060Z,1023.35
2018-11-14T06:09:49.619Z,1023.38
2018-11-14T06:10:30.179Z,1023.37
2018-11-14T06:11:10.742Z,1023.38
2018-11-14T06:11:51.299Z,1023.4
2018-11-14T06:12:31.864Z,1023.37
2018-11-14T06:13:12.469Z,1023.39
2018-11-14T06:13:53.030Z,1023.37
2018-11-14T06:14:33.574Z,1023.4
2018-11-14T06:15:14.194Z,1023.37
2018-11-14T06:15:54.704Z,1023.39
2018-11-14T06:16:35.271Z,1023.36
2018-11-14T06:17:15.884Z,1023.4
2018-11-14T06:17:56.465Z,1023.35
2018-11-14T06:18:37.048Z,1023.41
2018-11-14T06:19:17.596Z,1023.43
2018-11-14T06:19:58.148Z,1023.42
2018-11-14T06:20:38.721Z,1023.45
2018-11-14T06:21:19.275Z,1023.46
2018-11-14T06:21:59.935Z,1023.38
2018-11-14T06:22:40.393Z,1023.39
2018-11-14T06:23:20.957Z,1023.37
2018-11-14T06:24:01.534Z,1023.39
2018-11-14T06:24:42.093Z,1023.41
2018-11-14T06:25:22.659Z,1023.44
2018-11-14T06:26:03.211Z,1023.41
2018-11-14T06:26:43.779Z,1023.44
2018-11-14T06:27:24.681Z,1023.48
2018-11-14T06:28:05.241Z,1023.46
2018-11-14T06:28:45.795Z,1023.47
2018-11-14T06:29:26.391Z,1023.48
2018-11-14T06:30:07.333Z,1023.5
2018-11-14T06:30:47.908Z,1023.51
2018-11-14T06:31:28.446Z,1023.53
2018-11-14T06:32:09.123Z,1023.55
2018-11-14T06:32:50.049Z,1023.54
2018-11-14T06:33:32.969Z,1023.56
2018-11-14T06:34:12.790Z,1023.55
2018-11-14T06:34:53.346Z,1023.61
2018-11-14T06:35:33.913Z,1023.63
2018-11-14T06:36:14.457Z,1023.62
2018-11-14T06:36:55.048Z,1023.6
2018-11-14T06:37:38.142Z,1023.66
2018-11-14T06:38:18.708Z,1023.63
2018-11-14T06:38:59.254Z,1023.7
2018-11-14T06:39:39.847Z,1023.69
2018-11-14T06:40:20.445Z,1023.69
2018-11-14T06:41:00.988Z,1023.7
2018-11-14T06:41:41.662Z,1023.72
2018-11-14T06:42:22.176Z,1023.71
2018-11-14T06:43:02.862Z,1023.73
2018-11-14T06:43:43.431Z,1023.74
2018-11-14T06:44:23.983Z,1023.73
2018-11-14T06:45:04.536Z,1023.72
2018-11-14T06:45:45.111Z,1023.72
2018-11-14T06:46:25.700Z,1023.73
2018-11-14T06:47:06.491Z,1023.76
2018-11-14T06:47:47.058Z,1023.81
2018-11-14T06:48:27.657Z,1023.76
2018-11-14T06:49:08.305Z,1023.8
2018-11-14T06:49:48.896Z,1023.79
2018-11-14T06:50:29.451Z,1023.76
2018-11-14T06:51:10.017Z,1023.75
2018-11-14T06:51:50.915Z,1023.74
2018-11-14T06:52:31.941Z,1023.8
2018-11-14T06:53:12.949Z,1023.73
2018-11-14T06:53:54.012Z,1023.79
2018-11-14T06:54:34.916Z,1023.73
2018-11-14T06:55:15.950Z,1023.71
2018-11-14T06:55:57.008Z,1023.72
2018-11-14T06:56:37.713Z,1023.74
2018-11-14T06:57:18.597Z,1023.72
2018-11-14T06:57:59.274Z,1023.75
2018-11-14T06:58:40.184Z,1023.71
2018-11-14T06:59:21.043Z,1023.73
2018-11-14T07:00:01.740Z,1023.73
2018-11-14T07:00:42.547Z,1023.72
2018-11-14T07:01:23.197Z,1023.72
2018-11-14T07:02:03.893Z,1023.72
2018-11-14T07:02:44.657Z,1023.77
2018-11-14T07:03:25.587Z,1023.79
2018-11-14T07:04:06.177Z,1023.81
2018-11-14T07:04:46.962Z,1023.85
2018-11-14T07:05:27.697Z,1023.84
2018-11-14T07:06:08.405Z,1023.85
2018-11-14T07:06:49.172Z,1023.86
2018-11-14T07:07:29.991Z,1023.83
2018-11-14T07:08:10.640Z,1023.81
2018-11-14T07:08:51.219Z,1023.86
2018-11-14T07:09:31.895Z,1023.85
2018-11-14T07:10:12.483Z,1023.83
2018-11-14T07:10:53.067Z,1023.88
2018-11-14T07:11:33.604Z,1023.84
2018-11-14T07:12:14.149Z,1023.88
2018-11-14T07:12:54.718Z,1023.88
2018-11-14T07:13:35.271Z,1023.89
2018-11-14T07:14:15.988Z,1023.89
2018-11-14T07:14:56.761Z,1023.87
2018-11-14T07:15:37.343Z,1023.83
2018-11-14T07:16:17.896Z,1023.83
2018-11-14T07:16:58.490Z,1023.82
2018-11-14T07:17:39.359Z,1023.81
2018-11-14T07:18:20.344Z,1023.83
2018-11-14T07:19:01.177Z,1023.85
2018-11-14T07:19:41.740Z,1023.84
2018-11-14T07:20:22.295Z,1023.91
2018-11-14T07:21:02.845Z,1023.88
2018-11-14T07:21:43.393Z,1023.87
2018-11-14T07:22:24.028Z,1023.84
2018-11-14T07:23:04.650Z,1023.85
2018-11-14T07:23:45.315Z,1023.86
2018-11-14T07:24:25.827Z,1023.86
2018-11-14T07:25:06.319Z,1023.89
2018-11-14T07:25:46.873Z,1023.87
2018-11-14T07:26:27.448Z,1023.85
2018-11-14T07:27:08.082Z,1023.86
2018-11-14T07:27:48.606Z,1023.93
2018-11-14T07:28:29.170Z,1023.92
2018-11-14T07:29:09.738Z,1023.95
2018-11-14T07:29:50.306Z,1023.94
2018-11-14T07:30:31.232Z,1023.99
2018-11-14T07:31:11.783Z,1024.01
2018-11-14T07:31:52.375Z,1023.98
2018-11-14T07:32:32.939Z,1024.03
2018-11-14T07:33:13.550Z,1024.04
2018-11-14T07:33:54.131Z,1024
2018-11-14T07:34:34.839Z,1024.05
2018-11-14T07:35:15.402Z,1024.03
2018-11-14T07:35:55.965Z,1023.97
2018-11-14T07:36:36.577Z,1024
2018-11-14T07:38:34.376Z,1024.01
2018-11-14T07:39:14.929Z,1024.01
2018-11-14T07:39:55.512Z,1024.01
2018-11-14T07:40:36.084Z,1024.04
2018-11-14T07:41:16.635Z,1024.02
2018-11-14T07:41:57.210Z,1024.04
2018-11-14T07:42:37.766Z,1024
2018-11-14T07:43:18.310Z,1024.05
2018-11-14T07:43:58.864Z,1024.03
2018-11-14T07:44:39.479Z,1024.03
2018-11-14T07:45:20.028Z,1024.05
2018-11-14T07:46:00.749Z,1024.03
2018-11-14T07:46:41.484Z,1024.04
2018-11-14T07:47:22.271Z,1024.06
2018-11-14T07:48:03.065Z,1024.09
2018-11-14T07:48:43.619Z,1024.09
2018-11-14T07:49:24.188Z,1024.11
2018-11-14T07:50:04.798Z,1024.11
2018-11-14T07:50:45.345Z,1024.11
2018-11-14T07:51:25.898Z,1024.11
2018-11-14T07:52:06.456Z,1024.16
2018-11-14T07:52:47.025Z,1024.08
2018-11-14T07:53:27.588Z,1024.12
2018-11-14T07:54:08.147Z,1024.14
2018-11-14T07:54:48.817Z,1024.16
2018-11-14T07:55:29.451Z,1024.14
2018-11-14T07:56:09.998Z,1024.16
2018-11-14T07:56:50.555Z,1024.14
2018-11-14T07:57:31.148Z,1024.15
2018-11-14T07:58:11.903Z,1024.17
2018-11-14T07:58:52.441Z,1024.22
2018-11-14T07:59:32.989Z,1024.16
2018-11-14T08:00:13.543Z,1024.18
2018-11-14T08:00:54.284Z,1024.12
2018-11-14T08:01:34.847Z,1024.15
2018-11-14T08:02:15.524Z,1024.21
2018-11-14T08:02:56.019Z,1024.21
2018-11-14T08:03:36.555Z,1024.22
2018-11-14T08:04:17.116Z,1024.24
2018-11-14T08:04:57.704Z,1024.22
2018-11-14T08:05:38.258Z,1024.21
2018-11-14T08:06:18.842Z,1024.24
2018-11-14T08:06:59.432Z,1024.25
2018-11-14T08:07:39.998Z,1024.27
2018-11-14T08:08:20.626Z,1024.25
2018-11-14T08:09:01.098Z,1024.22
2018-11-14T08:09:41.728Z,1024.22
2018-11-14T08:10:22.298Z,1024.21
2018-11-14T08:11:03.325Z,1024.22
2018-11-14T08:11:43.880Z,1024.26
2018-11-14T08:12:24.459Z,1024.22
2018-11-14T08:13:05.022Z,1024.26
2018-11-14T08:13:45.636Z,1024.25
2018-11-14T08:14:26.287Z,1024.23